sensor_id;sensor_type;location;lat;lon;timestamp;P1;durP1;ratioP1;P2;durP2;ratioP2
51764;SDS011;37835;53.256;6.456;2024-03-29T00:00:53;2.58;;;0.65;;
51764;SDS011;37835;53.256;6.456;2024-03-29T00:03:20;3.10;;;0.73;;
51764;SDS011;37835;53.256;6.456;2024-03-29T00:05:45;6.15;;;0.95;;
51764;SDS011;37835;53.256;6.456;2024-03-29T00:08:11;1.98;;;0.73;;
51764;SDS011;37835;53.256;6.456;2024-03-29T00:10:37;3.15;;;0.70;;
51764;SDS011;37835;53.256;6.456;2024-03-29T00:13:03;3.03;;;0.75;;
51764;SDS011;37835;53.256;6.456;2024-03-29T00:15:31;2.35;;;0.77;;
51764;SDS011;37835;53.256;6.456;2024-03-29T00:17:57;2.97;;;0.70;;
51764;SDS011;37835;53.256;6.456;2024-03-29T00:20:23;4.20;;;0.93;;
51764;SDS011;37835;53.256;6.456;2024-03-29T00:22:49;5.07;;;1.20;;
51764;SDS011;37835;53.256;6.456;2024-03-29T00:25:14;3.00;;;0.98;;
51764;SDS011;37835;53.256;6.456;2024-03-29T00:27:40;2.90;;;0.90;;
51764;SDS011;37835;53.256;6.456;2024-03-29T00:30:06;2.88;;;0.55;;
51764;SDS011;37835;53.256;6.456;2024-03-29T00:32:32;2.88;;;0.70;;
51764;SDS011;37835;53.256;6.456;2024-03-29T00:34:57;7.72;;;1.38;;
51764;SDS011;37835;53.256;6.456;2024-03-29T00:37:23;3.97;;;0.73;;
51764;SDS011;37835;53.256;6.456;2024-03-29T00:39:49;4.10;;;0.70;;
51764;SDS011;37835;53.256;6.456;2024-03-29T00:42:15;4.80;;;0.70;;
51764;SDS011;37835;53.256;6.456;2024-03-29T00:44:42;5.15;;;0.70;;
51764;SDS011;37835;53.256;6.456;2024-03-29T00:47:08;5.63;;;0.90;;
51764;SDS011;37835;53.256;6.456;2024-03-29T00:49:35;5.55;;;0.95;;
51764;SDS011;37835;53.256;6.456;2024-03-29T00:52:01;3.17;;;0.57;;
51764;SDS011;37835;53.256;6.456;2024-03-29T00:54:27;5.63;;;1.05;;
51764;SDS011;37835;53.256;6.456;2024-03-29T00:56:53;5.18;;;0.70;;
51764;SDS011;37835;53.256;6.456;2024-03-29T00:59:19;3.88;;;1.00;;
51764;SDS011;37835;53.256;6.456;2024-03-29T01:01:48;5.25;;;0.75;;
51764;SDS011;37835;53.256;6.456;2024-03-29T01:04:14;3.45;;;0.80;;
51764;SDS011;37835;53.256;6.456;2024-03-29T01:06:41;7.95;;;1.02;;
51764;SDS011;37835;53.256;6.456;2024-03-29T01:09:06;5.22;;;1.25;;
51764;SDS011;37835;53.256;6.456;2024-03-29T01:11:36;5.15;;;0.60;;
51764;SDS011;37835;53.256;6.456;2024-03-29T01:14:03;3.03;;;0.73;;
51764;SDS011;37835;53.256;6.456;2024-03-29T01:16:29;5.63;;;1.00;;
51764;SDS011;37835;53.256;6.456;2024-03-29T01:18:55;4.15;;;0.60;;
51764;SDS011;37835;53.256;6.456;2024-03-29T01:21:22;6.32;;;1.17;;
51764;SDS011;37835;53.256;6.456;2024-03-29T01:23:48;3.78;;;0.68;;
51764;SDS011;37835;53.256;6.456;2024-03-29T01:26:14;5.40;;;0.90;;
51764;SDS011;37835;53.256;6.456;2024-03-29T01:28:42;3.78;;;0.68;;
51764;SDS011;37835;53.256;6.456;2024-03-29T01:31:08;4.13;;;0.80;;
51764;SDS011;37835;53.256;6.456;2024-03-29T01:33:33;5.28;;;1.05;;
51764;SDS011;37835;53.256;6.456;2024-03-29T01:36:02;6.97;;;1.33;;
51764;SDS011;37835;53.256;6.456;2024-03-29T01:38:29;4.45;;;0.90;;
51764;SDS011;37835;53.256;6.456;2024-03-29T01:40:55;7.45;;;0.90;;
51764;SDS011;37835;53.256;6.456;2024-03-29T01:43:20;3.20;;;0.88;;
51764;SDS011;37835;53.256;6.456;2024-03-29T01:45:47;4.68;;;0.65;;
51764;SDS011;37835;53.256;6.456;2024-03-29T01:48:14;5.15;;;1.10;;
51764;SDS011;37835;53.256;6.456;2024-03-29T01:50:42;6.68;;;0.95;;
51764;SDS011;37835;53.256;6.456;2024-03-29T01:53:08;5.60;;;0.82;;
51764;SDS011;37835;53.256;6.456;2024-03-29T01:55:34;5.07;;;0.77;;
51764;SDS011;37835;53.256;6.456;2024-03-29T01:58:01;8.45;;;1.17;;
51764;SDS011;37835;53.256;6.456;2024-03-29T02:00:27;3.67;;;0.95;;
51764;SDS011;37835;53.256;6.456;2024-03-29T02:02:54;6.35;;;0.68;;
51764;SDS011;37835;53.256;6.456;2024-03-29T02:05:20;3.05;;;0.60;;
51764;SDS011;37835;53.256;6.456;2024-03-29T02:07:46;2.45;;;0.80;;
51764;SDS011;37835;53.256;6.456;2024-03-29T02:10:13;5.95;;;0.95;;
51764;SDS011;37835;53.256;6.456;2024-03-29T02:12:40;8.18;;;0.93;;
51764;SDS011;37835;53.256;6.456;2024-03-29T02:15:06;5.93;;;1.00;;
51764;SDS011;37835;53.256;6.456;2024-03-29T02:17:32;6.18;;;0.80;;
51764;SDS011;37835;53.256;6.456;2024-03-29T02:19:58;4.97;;;0.90;;
51764;SDS011;37835;53.256;6.456;2024-03-29T02:22:24;10.20;;;0.90;;
51764;SDS011;37835;53.256;6.456;2024-03-29T02:24:52;5.25;;;1.00;;
51764;SDS011;37835;53.256;6.456;2024-03-29T02:27:19;5.15;;;0.73;;
51764;SDS011;37835;53.256;6.456;2024-03-29T02:29:46;5.75;;;1.00;;
51764;SDS011;37835;53.256;6.456;2024-03-29T02:32:11;1.83;;;0.85;;
51764;SDS011;37835;53.256;6.456;2024-03-29T02:34:37;4.05;;;0.80;;
51764;SDS011;37835;53.256;6.456;2024-03-29T02:37:03;3.63;;;0.70;;
51764;SDS011;37835;53.256;6.456;2024-03-29T02:39:29;8.50;;;0.85;;
51764;SDS011;37835;53.256;6.456;2024-03-29T02:41:55;4.78;;;0.85;;
51764;SDS011;37835;53.256;6.456;2024-03-29T02:44:21;5.03;;;0.93;;
51764;SDS011;37835;53.256;6.456;2024-03-29T02:46:46;2.70;;;0.80;;
51764;SDS011;37835;53.256;6.456;2024-03-29T02:49:12;5.53;;;0.80;;
51764;SDS011;37835;53.256;6.456;2024-03-29T02:51:38;3.80;;;0.93;;
51764;SDS011;37835;53.256;6.456;2024-03-29T02:54:03;7.90;;;1.20;;
51764;SDS011;37835;53.256;6.456;2024-03-29T02:56:29;2.90;;;0.77;;
51764;SDS011;37835;53.256;6.456;2024-03-29T02:58:55;2.92;;;0.70;;
51764;SDS011;37835;53.256;6.456;2024-03-29T03:01:21;4.38;;;1.00;;
51764;SDS011;37835;53.256;6.456;2024-03-29T03:03:47;6.30;;;0.90;;
51764;SDS011;37835;53.256;6.456;2024-03-29T03:06:12;5.47;;;1.13;;
51764;SDS011;37835;53.256;6.456;2024-03-29T03:08:38;4.00;;;0.68;;
51764;SDS011;37835;53.256;6.456;2024-03-29T03:11:22;3.42;;;0.70;;
51764;SDS011;37835;53.256;6.456;2024-03-29T03:13:48;8.60;;;1.13;;
51764;SDS011;37835;53.256;6.456;2024-03-29T03:16:14;6.32;;;0.88;;
51764;SDS011;37835;53.256;6.456;2024-03-29T03:18:39;5.68;;;0.63;;
51764;SDS011;37835;53.256;6.456;2024-03-29T03:21:05;2.58;;;0.73;;
51764;SDS011;37835;53.256;6.456;2024-03-29T03:23:31;3.97;;;0.70;;
51764;SDS011;37835;53.256;6.456;2024-03-29T03:26:01;5.40;;;1.00;;
51764;SDS011;37835;53.256;6.456;2024-03-29T03:28:30;4.50;;;0.93;;
51764;SDS011;37835;53.256;6.456;2024-03-29T03:30:56;6.13;;;0.82;;
51764;SDS011;37835;53.256;6.456;2024-03-29T03:33:22;4.75;;;0.70;;
51764;SDS011;37835;53.256;6.456;2024-03-29T03:35:48;5.15;;;0.80;;
51764;SDS011;37835;53.256;6.456;2024-03-29T03:38:14;4.78;;;0.80;;
51764;SDS011;37835;53.256;6.456;2024-03-29T03:40:41;6.00;;;0.68;;
51764;SDS011;37835;53.256;6.456;2024-03-29T03:43:07;6.53;;;0.60;;
51764;SDS011;37835;53.256;6.456;2024-03-29T03:45:34;4.20;;;0.98;;
51764;SDS011;37835;53.256;6.456;2024-03-29T03:48:08;7.97;;;1.00;;
51764;SDS011;37835;53.256;6.456;2024-03-29T03:50:36;3.20;;;0.63;;
51764;SDS011;37835;53.256;6.456;2024-03-29T03:53:06;4.00;;;0.95;;
51764;SDS011;37835;53.256;6.456;2024-03-29T03:55:35;3.33;;;0.47;;
51764;SDS011;37835;53.256;6.456;2024-03-29T03:58:04;9.18;;;0.98;;
51764;SDS011;37835;53.256;6.456;2024-03-29T04:00:30;5.32;;;1.17;;
51764;SDS011;37835;53.256;6.456;2024-03-29T04:02:55;2.60;;;0.73;;
51764;SDS011;37835;53.256;6.456;2024-03-29T04:05:22;6.63;;;0.90;;
51764;SDS011;37835;53.256;6.456;2024-03-29T04:07:48;4.80;;;0.98;;
51764;SDS011;37835;53.256;6.456;2024-03-29T04:10:14;6.75;;;0.98;;
51764;SDS011;37835;53.256;6.456;2024-03-29T04:12:39;4.25;;;0.80;;
51764;SDS011;37835;53.256;6.456;2024-03-29T04:15:05;5.63;;;0.73;;
51764;SDS011;37835;53.256;6.456;2024-03-29T04:17:32;6.78;;;0.60;;
51764;SDS011;37835;53.256;6.456;2024-03-29T04:19:58;3.17;;;0.80;;
51764;SDS011;37835;53.256;6.456;2024-03-29T04:22:24;2.55;;;0.52;;
51764;SDS011;37835;53.256;6.456;2024-03-29T04:24:50;1.88;;;0.77;;
51764;SDS011;37835;53.256;6.456;2024-03-29T04:27:16;3.35;;;0.70;;
51764;SDS011;37835;53.256;6.456;2024-03-29T04:29:42;2.63;;;0.50;;
51764;SDS011;37835;53.256;6.456;2024-03-29T04:32:08;4.57;;;0.95;;
51764;SDS011;37835;53.256;6.456;2024-03-29T04:34:33;4.35;;;1.00;;
51764;SDS011;37835;53.256;6.456;2024-03-29T04:36:59;4.43;;;0.68;;
51764;SDS011;37835;53.256;6.456;2024-03-29T04:39:25;4.18;;;0.70;;
51764;SDS011;37835;53.256;6.456;2024-03-29T04:41:51;4.90;;;0.73;;
51764;SDS011;37835;53.256;6.456;2024-03-29T04:44:23;3.63;;;1.10;;
51764;SDS011;37835;53.256;6.456;2024-03-29T04:46:53;5.32;;;0.70;;
51764;SDS011;37835;53.256;6.456;2024-03-29T04:49:19;2.92;;;0.52;;
51764;SDS011;37835;53.256;6.456;2024-03-29T04:51:55;3.20;;;0.60;;
51764;SDS011;37835;53.256;6.456;2024-03-29T04:54:22;8.85;;;0.73;;
51764;SDS011;37835;53.256;6.456;2024-03-29T04:56:48;5.60;;;0.68;;
51764;SDS011;37835;53.256;6.456;2024-03-29T04:59:13;4.25;;;0.55;;
51764;SDS011;37835;53.256;6.456;2024-03-29T05:01:42;5.68;;;0.90;;
51764;SDS011;37835;53.256;6.456;2024-03-29T05:04:15;3.55;;;0.50;;
51764;SDS011;37835;53.256;6.456;2024-03-29T05:06:43;6.03;;;0.60;;
51764;SDS011;37835;53.256;6.456;2024-03-29T05:09:10;2.75;;;0.60;;
51764;SDS011;37835;53.256;6.456;2024-03-29T05:11:36;4.93;;;0.90;;
51764;SDS011;37835;53.256;6.456;2024-03-29T05:14:02;2.88;;;0.60;;
51764;SDS011;37835;53.256;6.456;2024-03-29T05:16:29;3.90;;;0.70;;
51764;SDS011;37835;53.256;6.456;2024-03-29T05:18:54;3.88;;;0.63;;
51764;SDS011;37835;53.256;6.456;2024-03-29T05:21:20;4.22;;;0.80;;
51764;SDS011;37835;53.256;6.456;2024-03-29T05:23:46;2.30;;;0.90;;
51764;SDS011;37835;53.256;6.456;2024-03-29T05:26:11;4.55;;;1.10;;
51764;SDS011;37835;53.256;6.456;2024-03-29T05:28:37;3.97;;;0.75;;
51764;SDS011;37835;53.256;6.456;2024-03-29T05:31:13;5.70;;;1.02;;
51764;SDS011;37835;53.256;6.456;2024-03-29T05:33:40;3.40;;;0.60;;
51764;SDS011;37835;53.256;6.456;2024-03-29T05:36:06;6.15;;;0.80;;
51764;SDS011;37835;53.256;6.456;2024-03-29T05:38:33;3.95;;;1.00;;
51764;SDS011;37835;53.256;6.456;2024-03-29T05:40:59;2.50;;;0.60;;
51764;SDS011;37835;53.256;6.456;2024-03-29T05:43:25;3.28;;;0.70;;
51764;SDS011;37835;53.256;6.456;2024-03-29T05:45:53;3.33;;;0.80;;
51764;SDS011;37835;53.256;6.456;2024-03-29T05:48:19;4.28;;;0.60;;
51764;SDS011;37835;53.256;6.456;2024-03-29T05:50:44;5.75;;;0.77;;
51764;SDS011;37835;53.256;6.456;2024-03-29T05:53:10;2.65;;;0.52;;
51764;SDS011;37835;53.256;6.456;2024-03-29T05:55:36;5.07;;;1.02;;
51764;SDS011;37835;53.256;6.456;2024-03-29T05:58:02;1.60;;;0.50;;
51764;SDS011;37835;53.256;6.456;2024-03-29T06:00:27;4.88;;;0.60;;
51764;SDS011;37835;53.256;6.456;2024-03-29T06:02:54;5.15;;;1.02;;
51764;SDS011;37835;53.256;6.456;2024-03-29T06:05:19;2.17;;;0.40;;
51764;SDS011;37835;53.256;6.456;2024-03-29T06:07:45;3.17;;;0.65;;
51764;SDS011;37835;53.256;6.456;2024-03-29T06:10:11;2.88;;;0.50;;
51764;SDS011;37835;53.256;6.456;2024-03-29T06:12:36;5.15;;;0.93;;
51764;SDS011;37835;53.256;6.456;2024-03-29T06:15:05;3.08;;;0.60;;
51764;SDS011;37835;53.256;6.456;2024-03-29T06:17:50;4.55;;;0.70;;
51764;SDS011;37835;53.256;6.456;2024-03-29T06:20:16;4.07;;;0.85;;
51764;SDS011;37835;53.256;6.456;2024-03-29T06:22:42;0.95;;;0.40;;
51764;SDS011;37835;53.256;6.456;2024-03-29T06:25:07;4.97;;;0.50;;
51764;SDS011;37835;53.256;6.456;2024-03-29T06:27:34;5.70;;;0.70;;
51764;SDS011;37835;53.256;6.456;2024-03-29T06:30:01;1.70;;;0.50;;
51764;SDS011;37835;53.256;6.456;2024-03-29T06:32:28;2.08;;;0.43;;
51764;SDS011;37835;53.256;6.456;2024-03-29T06:34:55;6.00;;;0.82;;
51764;SDS011;37835;53.256;6.456;2024-03-29T06:37:21;3.22;;;0.85;;
51764;SDS011;37835;53.256;6.456;2024-03-29T06:39:47;2.72;;;0.60;;
51764;SDS011;37835;53.256;6.456;2024-03-29T06:42:13;1.92;;;0.40;;
51764;SDS011;37835;53.256;6.456;2024-03-29T06:44:39;3.53;;;0.50;;
51764;SDS011;37835;53.256;6.456;2024-03-29T06:47:05;2.20;;;0.55;;
51764;SDS011;37835;53.256;6.456;2024-03-29T06:49:32;2.47;;;0.32;;
51764;SDS011;37835;53.256;6.456;2024-03-29T06:51:57;2.28;;;0.45;;
51764;SDS011;37835;53.256;6.456;2024-03-29T06:54:26;1.15;;;0.28;;
51764;SDS011;37835;53.256;6.456;2024-03-29T06:56:52;3.10;;;0.40;;
51764;SDS011;37835;53.256;6.456;2024-03-29T06:59:19;2.33;;;0.40;;
51764;SDS011;37835;53.256;6.456;2024-03-29T07:01:45;1.13;;;0.35;;
51764;SDS011;37835;53.256;6.456;2024-03-29T07:04:12;3.25;;;0.45;;
51764;SDS011;37835;53.256;6.456;2024-03-29T07:06:38;1.27;;;0.28;;
51764;SDS011;37835;53.256;6.456;2024-03-29T07:09:07;1.27;;;0.30;;
51764;SDS011;37835;53.256;6.456;2024-03-29T07:11:35;3.50;;;0.50;;
51764;SDS011;37835;53.256;6.456;2024-03-29T07:14:01;3.22;;;0.40;;
51764;SDS011;37835;53.256;6.456;2024-03-29T07:16:26;1.65;;;0.20;;
51764;SDS011;37835;53.256;6.456;2024-03-29T07:18:52;2.13;;;0.40;;
51764;SDS011;37835;53.256;6.456;2024-03-29T07:21:18;1.10;;;0.10;;
51764;SDS011;37835;53.256;6.456;2024-03-29T07:23:43;0.90;;;0.20;;
51764;SDS011;37835;53.256;6.456;2024-03-29T07:26:09;1.95;;;0.50;;
51764;SDS011;37835;53.256;6.456;2024-03-29T07:28:36;3.28;;;0.60;;
51764;SDS011;37835;53.256;6.456;2024-03-29T07:31:05;8.02;;;0.55;;
51764;SDS011;37835;53.256;6.456;2024-03-29T07:33:35;1.50;;;0.30;;
51764;SDS011;37835;53.256;6.456;2024-03-29T07:36:02;1.65;;;0.30;;
51764;SDS011;37835;53.256;6.456;2024-03-29T07:38:29;0.90;;;0.20;;
51764;SDS011;37835;53.256;6.456;2024-03-29T07:40:55;2.35;;;0.40;;
51764;SDS011;37835;53.256;6.456;2024-03-29T07:43:24;1.45;;;0.30;;
51764;SDS011;37835;53.256;6.456;2024-03-29T07:45:49;0.85;;;0.28;;
51764;SDS011;37835;53.256;6.456;2024-03-29T07:48:16;1.73;;;0.25;;
51764;SDS011;37835;53.256;6.456;2024-03-29T07:50:43;1.05;;;0.30;;
51764;SDS011;37835;53.256;6.456;2024-03-29T07:53:10;0.68;;;0.20;;
51764;SDS011;37835;53.256;6.456;2024-03-29T07:55:39;2.08;;;0.20;;
51764;SDS011;37835;53.256;6.456;2024-03-29T07:58:09;1.90;;;0.30;;
51764;SDS011;37835;53.256;6.456;2024-03-29T08:00:38;2.38;;;0.43;;
51764;SDS011;37835;53.256;6.456;2024-03-29T08:03:06;1.27;;;0.20;;
51764;SDS011;37835;53.256;6.456;2024-03-29T08:05:32;2.60;;;0.32;;
51764;SDS011;37835;53.256;6.456;2024-03-29T08:07:58;1.77;;;0.13;;
51764;SDS011;37835;53.256;6.456;2024-03-29T08:10:24;3.25;;;0.30;;
51764;SDS011;37835;53.256;6.456;2024-03-29T08:12:50;1.05;;;0.22;;
51764;SDS011;37835;53.256;6.456;2024-03-29T08:15:16;2.83;;;0.30;;
51764;SDS011;37835;53.256;6.456;2024-03-29T08:17:43;1.65;;;0.35;;
51764;SDS011;37835;53.256;6.456;2024-03-29T08:20:10;1.65;;;0.38;;
51764;SDS011;37835;53.256;6.456;2024-03-29T08:22:35;1.13;;;0.35;;
51764;SDS011;37835;53.256;6.456;2024-03-29T08:25:01;1.35;;;0.35;;
51764;SDS011;37835;53.256;6.456;2024-03-29T08:27:27;2.45;;;0.55;;
51764;SDS011;37835;53.256;6.456;2024-03-29T08:29:53;0.98;;;0.28;;
51764;SDS011;37835;53.256;6.456;2024-03-29T08:32:19;2.45;;;0.60;;
51764;SDS011;37835;53.256;6.456;2024-03-29T08:34:45;2.33;;;0.35;;
51764;SDS011;37835;53.256;6.456;2024-03-29T08:37:11;1.15;;;0.20;;
51764;SDS011;37835;53.256;6.456;2024-03-29T08:39:36;3.05;;;0.35;;
51764;SDS011;37835;53.256;6.456;2024-03-29T08:42:03;4.22;;;0.50;;
51764;SDS011;37835;53.256;6.456;2024-03-29T08:44:36;1.42;;;0.30;;
51764;SDS011;37835;53.256;6.456;2024-03-29T08:47:02;0.55;;;0.25;;
51764;SDS011;37835;53.256;6.456;2024-03-29T08:49:28;1.95;;;0.40;;
51764;SDS011;37835;53.256;6.456;2024-03-29T08:51:54;1.77;;;0.30;;
51764;SDS011;37835;53.256;6.456;2024-03-29T08:54:20;4.05;;;0.30;;
51764;SDS011;37835;53.256;6.456;2024-03-29T08:56:47;1.05;;;0.40;;
51764;SDS011;37835;53.256;6.456;2024-03-29T08:59:12;3.55;;;0.30;;
51764;SDS011;37835;53.256;6.456;2024-03-29T09:01:44;0.70;;;0.25;;
51764;SDS011;37835;53.256;6.456;2024-03-29T09:04:10;4.00;;;0.40;;
51764;SDS011;37835;53.256;6.456;2024-03-29T09:06:36;0.65;;;0.17;;
51764;SDS011;37835;53.256;6.456;2024-03-29T09:09:04;0.75;;;0.30;;
51764;SDS011;37835;53.256;6.456;2024-03-29T09:11:30;1.52;;;0.40;;
51764;SDS011;37835;53.256;6.456;2024-03-29T09:13:56;0.90;;;0.30;;
51764;SDS011;37835;53.256;6.456;2024-03-29T09:16:23;1.55;;;0.20;;
51764;SDS011;37835;53.256;6.456;2024-03-29T09:18:50;1.95;;;0.45;;
51764;SDS011;37835;53.256;6.456;2024-03-29T09:21:16;1.33;;;0.38;;
51764;SDS011;37835;53.256;6.456;2024-03-29T09:23:42;1.38;;;0.50;;
51764;SDS011;37835;53.256;6.456;2024-03-29T09:26:07;1.40;;;0.40;;
51764;SDS011;37835;53.256;6.456;2024-03-29T09:28:33;0.70;;;0.20;;
51764;SDS011;37835;53.256;6.456;2024-03-29T09:31:02;0.45;;;0.20;;
51764;SDS011;37835;53.256;6.456;2024-03-29T09:33:28;1.25;;;0.30;;
51764;SDS011;37835;53.256;6.456;2024-03-29T09:35:54;0.93;;;0.20;;
51764;SDS011;37835;53.256;6.456;2024-03-29T09:38:20;1.23;;;0.38;;
51764;SDS011;37835;53.256;6.456;2024-03-29T09:40:46;0.68;;;0.32;;
51764;SDS011;37835;53.256;6.456;2024-03-29T09:43:15;1.20;;;0.40;;
51764;SDS011;37835;53.256;6.456;2024-03-29T09:45:42;1.42;;;0.40;;
51764;SDS011;37835;53.256;6.456;2024-03-29T09:48:09;0.65;;;0.22;;
51764;SDS011;37835;53.256;6.456;2024-03-29T09:50:34;0.63;;;0.40;;
51764;SDS011;37835;53.256;6.456;2024-03-29T09:53:06;0.88;;;0.30;;
51764;SDS011;37835;53.256;6.456;2024-03-29T09:55:33;0.90;;;0.30;;
51764;SDS011;37835;53.256;6.456;2024-03-29T09:58:02;2.58;;;0.40;;
51764;SDS011;37835;53.256;6.456;2024-03-29T10:00:29;1.17;;;0.20;;
51764;SDS011;37835;53.256;6.456;2024-03-29T10:02:57;3.05;;;0.40;;
51764;SDS011;37835;53.256;6.456;2024-03-29T10:05:26;2.08;;;0.40;;
51764;SDS011;37835;53.256;6.456;2024-03-29T10:07:52;0.70;;;0.40;;
51764;SDS011;37835;53.256;6.456;2024-03-29T10:10:19;1.23;;;0.65;;
51764;SDS011;37835;53.256;6.456;2024-03-29T10:12:45;0.65;;;0.40;;
51764;SDS011;37835;53.256;6.456;2024-03-29T10:15:10;0.95;;;0.45;;
51764;SDS011;37835;53.256;6.456;2024-03-29T10:17:46;1.15;;;0.57;;
51764;SDS011;37835;53.256;6.456;2024-03-29T10:20:15;1.98;;;0.52;;
51764;SDS011;37835;53.256;6.456;2024-03-29T10:22:42;1.23;;;0.40;;
51764;SDS011;37835;53.256;6.456;2024-03-29T10:25:09;0.77;;;0.40;;
51764;SDS011;37835;53.256;6.456;2024-03-29T10:27:35;1.05;;;0.20;;
51764;SDS011;37835;53.256;6.456;2024-03-29T10:30:01;0.95;;;0.20;;
51764;SDS011;37835;53.256;6.456;2024-03-29T10:32:29;1.55;;;0.30;;
51764;SDS011;37835;53.256;6.456;2024-03-29T10:34:54;2.75;;;0.40;;
51764;SDS011;37835;53.256;6.456;2024-03-29T10:37:20;1.08;;;0.40;;
51764;SDS011;37835;53.256;6.456;2024-03-29T10:39:51;0.43;;;0.10;;
51764;SDS011;37835;53.256;6.456;2024-03-29T10:42:18;1.05;;;0.30;;
51764;SDS011;37835;53.256;6.456;2024-03-29T10:44:47;1.55;;;0.35;;
51764;SDS011;37835;53.256;6.456;2024-03-29T10:47:17;0.25;;;0.10;;
51764;SDS011;37835;53.256;6.456;2024-03-29T10:49:43;0.75;;;0.10;;
51764;SDS011;37835;53.256;6.456;2024-03-29T10:52:14;0.63;;;0.20;;
51764;SDS011;37835;53.256;6.456;2024-03-29T10:54:42;0.47;;;0.20;;
51764;SDS011;37835;53.256;6.456;2024-03-29T10:57:16;3.60;;;0.68;;
51764;SDS011;37835;53.256;6.456;2024-03-29T11:02:39;2.83;;;0.30;;
51764;SDS011;37835;53.256;6.456;2024-03-29T11:05:12;0.90;;;0.13;;
51764;SDS011;37835;53.256;6.456;2024-03-29T11:07:41;1.10;;;0.30;;
51764;SDS011;37835;53.256;6.456;2024-03-29T11:10:13;0.47;;;0.20;;
51764;SDS011;37835;53.256;6.456;2024-03-29T11:15:31;2.05;;;0.30;;
51764;SDS011;37835;53.256;6.456;2024-03-29T11:18:02;1.17;;;0.25;;
51764;SDS011;37835;53.256;6.456;2024-03-29T11:20:29;2.05;;;0.28;;
51764;SDS011;37835;53.256;6.456;2024-03-29T11:23:12;1.65;;;0.20;;
51764;SDS011;37835;53.256;6.456;2024-03-29T11:25:53;2.25;;;0.55;;
51764;SDS011;37835;53.256;6.456;2024-03-29T11:28:24;0.93;;;0.22;;
51764;SDS011;37835;53.256;6.456;2024-03-29T11:30:57;0.70;;;0.32;;
51764;SDS011;37835;53.256;6.456;2024-03-29T11:33:30;1.58;;;0.47;;
51764;SDS011;37835;53.256;6.456;2024-03-29T11:35:59;0.80;;;0.30;;
51764;SDS011;37835;53.256;6.456;2024-03-29T11:38:32;0.57;;;0.30;;
51764;SDS011;37835;53.256;6.456;2024-03-29T11:41:04;2.15;;;0.38;;
51764;SDS011;37835;53.256;6.456;2024-03-29T11:43:40;1.23;;;0.32;;
51764;SDS011;37835;53.256;6.456;2024-03-29T11:46:08;1.77;;;0.40;;
51764;SDS011;37835;53.256;6.456;2024-03-29T11:48:35;3.50;;;0.30;;
51764;SDS011;37835;53.256;6.456;2024-03-29T11:51:01;3.67;;;0.30;;
51764;SDS011;37835;53.256;6.456;2024-03-29T11:53:29;1.00;;;0.20;;
51764;SDS011;37835;53.256;6.456;2024-03-29T11:55:59;1.67;;;0.30;;
51764;SDS011;37835;53.256;6.456;2024-03-29T11:58:26;1.23;;;0.50;;
51764;SDS011;37835;53.256;6.456;2024-03-29T12:00:53;0.50;;;0.20;;
51764;SDS011;37835;53.256;6.456;2024-03-29T12:03:21;0.80;;;0.38;;
51764;SDS011;37835;53.256;6.456;2024-03-29T12:05:48;2.90;;;0.40;;
51764;SDS011;37835;53.256;6.456;2024-03-29T12:08:16;1.42;;;0.30;;
51764;SDS011;37835;53.256;6.456;2024-03-29T12:10:42;1.02;;;0.40;;
51764;SDS011;37835;53.256;6.456;2024-03-29T12:13:08;3.38;;;0.40;;
51764;SDS011;37835;53.256;6.456;2024-03-29T12:15:35;2.83;;;0.55;;
51764;SDS011;37835;53.256;6.456;2024-03-29T12:18:01;1.10;;;0.28;;
51764;SDS011;37835;53.256;6.456;2024-03-29T12:20:29;1.15;;;0.50;;
51764;SDS011;37835;53.256;6.456;2024-03-29T12:22:55;2.15;;;0.60;;
51764;SDS011;37835;53.256;6.456;2024-03-29T12:25:23;0.75;;;0.38;;
51764;SDS011;37835;53.256;6.456;2024-03-29T12:27:50;3.20;;;0.55;;
51764;SDS011;37835;53.256;6.456;2024-03-29T12:30:18;0.65;;;0.25;;
51764;SDS011;37835;53.256;6.456;2024-03-29T12:32:43;0.55;;;0.30;;
51764;SDS011;37835;53.256;6.456;2024-03-29T12:35:10;2.50;;;0.50;;
51764;SDS011;37835;53.256;6.456;2024-03-29T12:37:37;2.20;;;0.40;;
51764;SDS011;37835;53.256;6.456;2024-03-29T12:40:04;2.65;;;0.57;;
51764;SDS011;37835;53.256;6.456;2024-03-29T12:42:40;1.13;;;0.30;;
51764;SDS011;37835;53.256;6.456;2024-03-29T12:45:05;1.33;;;0.50;;
51764;SDS011;37835;53.256;6.456;2024-03-29T12:47:33;2.03;;;0.32;;
51764;SDS011;37835;53.256;6.456;2024-03-29T12:50:00;1.98;;;0.40;;
51764;SDS011;37835;53.256;6.456;2024-03-29T12:52:26;2.40;;;0.52;;
51764;SDS011;37835;53.256;6.456;2024-03-29T12:54:52;1.77;;;0.40;;
51764;SDS011;37835;53.256;6.456;2024-03-29T12:57:17;3.00;;;0.50;;
51764;SDS011;37835;53.256;6.456;2024-03-29T12:59:46;1.10;;;0.40;;
51764;SDS011;37835;53.256;6.456;2024-03-29T13:02:12;1.50;;;0.50;;
51764;SDS011;37835;53.256;6.456;2024-03-29T13:04:38;3.60;;;0.38;;
51764;SDS011;37835;53.256;6.456;2024-03-29T13:07:08;1.55;;;0.32;;
51764;SDS011;37835;53.256;6.456;2024-03-29T13:09:34;1.67;;;0.32;;
51764;SDS011;37835;53.256;6.456;2024-03-29T13:12:00;1.45;;;0.30;;
51764;SDS011;37835;53.256;6.456;2024-03-29T13:14:26;1.17;;;0.40;;
51764;SDS011;37835;53.256;6.456;2024-03-29T13:16:51;1.75;;;0.30;;
51764;SDS011;37835;53.256;6.456;2024-03-29T13:19:17;1.80;;;0.60;;
51764;SDS011;37835;53.256;6.456;2024-03-29T13:21:43;1.90;;;0.50;;
51764;SDS011;37835;53.256;6.456;2024-03-29T13:24:08;1.05;;;0.35;;
51764;SDS011;37835;53.256;6.456;2024-03-29T13:26:34;1.95;;;0.43;;
51764;SDS011;37835;53.256;6.456;2024-03-29T13:29:00;1.98;;;0.45;;
51764;SDS011;37835;53.256;6.456;2024-03-29T13:31:25;1.23;;;0.47;;
51764;SDS011;37835;53.256;6.456;2024-03-29T13:33:53;1.67;;;0.43;;
51764;SDS011;37835;53.256;6.456;2024-03-29T13:36:28;1.27;;;0.40;;
51764;SDS011;37835;53.256;6.456;2024-03-29T13:38:54;0.70;;;0.40;;
51764;SDS011;37835;53.256;6.456;2024-03-29T13:41:20;2.88;;;0.30;;
51764;SDS011;37835;53.256;6.456;2024-03-29T13:43:46;3.15;;;0.40;;
51764;SDS011;37835;53.256;6.456;2024-03-29T13:46:12;3.40;;;0.47;;
51764;SDS011;37835;53.256;6.456;2024-03-29T13:48:38;1.52;;;0.47;;
51764;SDS011;37835;53.256;6.456;2024-03-29T13:51:04;2.35;;;0.32;;
51764;SDS011;37835;53.256;6.456;2024-03-29T13:53:31;1.30;;;0.47;;
51764;SDS011;37835;53.256;6.456;2024-03-29T13:56:00;1.13;;;0.30;;
51764;SDS011;37835;53.256;6.456;2024-03-29T13:58:28;2.20;;;0.40;;
51764;SDS011;37835;53.256;6.456;2024-03-29T14:00:54;1.65;;;0.55;;
51764;SDS011;37835;53.256;6.456;2024-03-29T14:03:25;2.50;;;0.40;;
51764;SDS011;37835;53.256;6.456;2024-03-29T14:05:51;3.70;;;0.50;;
51764;SDS011;37835;53.256;6.456;2024-03-29T14:08:16;1.50;;;0.30;;
51764;SDS011;37835;53.256;6.456;2024-03-29T14:10:42;2.88;;;0.60;;
51764;SDS011;37835;53.256;6.456;2024-03-29T14:13:09;1.30;;;0.45;;
51764;SDS011;37835;53.256;6.456;2024-03-29T14:15:37;1.15;;;0.50;;
51764;SDS011;37835;53.256;6.456;2024-03-29T14:18:03;1.52;;;0.30;;
51764;SDS011;37835;53.256;6.456;2024-03-29T14:20:30;3.40;;;0.57;;
51764;SDS011;37835;53.256;6.456;2024-03-29T14:22:56;1.48;;;0.50;;
51764;SDS011;37835;53.256;6.456;2024-03-29T14:25:23;0.90;;;0.30;;
51764;SDS011;37835;53.256;6.456;2024-03-29T14:27:49;1.00;;;0.40;;
51764;SDS011;37835;53.256;6.456;2024-03-29T14:30:22;1.73;;;0.50;;
51764;SDS011;37835;53.256;6.456;2024-03-29T14:32:50;1.73;;;0.40;;
51764;SDS011;37835;53.256;6.456;2024-03-29T14:35:17;1.40;;;0.43;;
51764;SDS011;37835;53.256;6.456;2024-03-29T14:37:43;1.13;;;0.30;;
51764;SDS011;37835;53.256;6.456;2024-03-29T14:40:10;0.88;;;0.30;;
51764;SDS011;37835;53.256;6.456;2024-03-29T14:42:37;1.05;;;0.50;;
51764;SDS011;37835;53.256;6.456;2024-03-29T14:45:07;1.02;;;0.30;;
51764;SDS011;37835;53.256;6.456;2024-03-29T14:47:36;0.95;;;0.22;;
51764;SDS011;37835;53.256;6.456;2024-03-29T14:50:03;1.55;;;0.50;;
51764;SDS011;37835;53.256;6.456;2024-03-29T14:52:39;0.75;;;0.35;;